sensor_id;sensor_type;location;lat;lon;timestamp;P1;durP1;ratioP1;P2;durP2;ratioP2
35632;SDS011;21754;48.216;-1.628;2022-07-04T00:00:54;7.45;;;1.73;;
35632;SDS011;21754;48.216;-1.628;2022-07-04T00:03:20;3.83;;;2.15;;
35632;SDS011;21754;48.216;-1.628;2022-07-04T00:05:45;9.43;;;1.92;;
35632;SDS011;21754;48.216;-1.628;2022-07-04T00:08:11;5.38;;;1.98;;
35632;SDS011;21754;48.216;-1.628;2022-07-04T00:10:37;7.72;;;1.75;;
35632;SDS011;21754;48.216;-1.628;2022-07-04T00:13:02;4.20;;;1.33;;
35632;SDS011;21754;48.216;-1.628;2022-07-04T00:15:28;5.85;;;1.85;;
35632;SDS011;21754;48.216;-1.628;2022-07-04T00:17:54;10.15;;;2.58;;
35632;SDS011;21754;48.216;-1.628;2022-07-04T00:20:19;5.22;;;2.40;;
35632;SDS011;21754;48.216;-1.628;2022-07-04T00:22:45;12.30;;;3.20;;
35632;SDS011;21754;48.216;-1.628;2022-07-04T00:25:12;9.18;;;2.80;;
35632;SDS011;21754;48.216;-1.628;2022-07-04T00:27:38;3.28;;;1.63;;
35632;SDS011;21754;48.216;-1.628;2022-07-04T00:30:04;9.45;;;2.38;;
35632;SDS011;21754;48.216;-1.628;2022-07-04T00:32:30;6.72;;;2.00;;
35632;SDS011;21754;48.216;-1.628;2022-07-04T00:34:56;3.38;;;1.77;;
35632;SDS011;21754;48.216;-1.628;2022-07-04T00:37:21;4.15;;;1.67;;
35632;SDS011;21754;48.216;-1.628;2022-07-04T00:39:47;5.97;;;1.85;;
35632;SDS011;21754;48.216;-1.628;2022-07-04T00:42:13;4.43;;;2.08;;
35632;SDS011;21754;48.216;-1.628;2022-07-04T00:44:38;2.15;;;1.88;;
35632;SDS011;21754;48.216;-1.628;2022-07-04T00:47:04;4.93;;;1.60;;
35632;SDS011;21754;48.216;-1.628;2022-07-04T00:49:31;8.98;;;1.70;;
35632;SDS011;21754;48.216;-1.628;2022-07-04T00:51:57;5.90;;;1.40;;
35632;SDS011;21754;48.216;-1.628;2022-07-04T00:54:25;7.20;;;1.75;;
35632;SDS011;21754;48.216;-1.628;2022-07-04T00:56:55;7.88;;;1.73;;
35632;SDS011;21754;48.216;-1.628;2022-07-04T00:59:21;6.88;;;1.38;;
35632;SDS011;21754;48.216;-1.628;2022-07-04T01:01:47;5.63;;;1.58;;
35632;SDS011;21754;48.216;-1.628;2022-07-04T01:04:14;14.57;;;3.03;;
35632;SDS011;21754;48.216;-1.628;2022-07-04T01:06:39;6.00;;;1.45;;
35632;SDS011;21754;48.216;-1.628;2022-07-04T01:09:06;3.97;;;1.48;;
35632;SDS011;21754;48.216;-1.628;2022-07-04T01:11:32;12.52;;;2.28;;
35632;SDS011;21754;48.216;-1.628;2022-07-04T01:13:57;5.47;;;2.88;;
35632;SDS011;21754;48.216;-1.628;2022-07-04T01:16:26;7.80;;;2.13;;
35632;SDS011;21754;48.216;-1.628;2022-07-04T01:18:53;10.43;;;2.65;;
35632;SDS011;21754;48.216;-1.628;2022-07-04T01:21:19;5.68;;;2.13;;
35632;SDS011;21754;48.216;-1.628;2022-07-04T01:23:46;8.77;;;2.38;;
35632;SDS011;21754;48.216;-1.628;2022-07-04T01:26:11;9.05;;;1.80;;
35632;SDS011;21754;48.216;-1.628;2022-07-04T01:28:38;10.25;;;1.65;;
35632;SDS011;21754;48.216;-1.628;2022-07-04T01:31:04;3.72;;;2.13;;
35632;SDS011;21754;48.216;-1.628;2022-07-04T01:33:30;10.15;;;1.88;;
35632;SDS011;21754;48.216;-1.628;2022-07-04T01:35:56;8.23;;;1.42;;
35632;SDS011;21754;48.216;-1.628;2022-07-04T01:38:22;6.43;;;1.67;;
35632;SDS011;21754;48.216;-1.628;2022-07-04T01:40:48;7.78;;;2.00;;
35632;SDS011;21754;48.216;-1.628;2022-07-04T01:43:14;9.30;;;2.78;;
35632;SDS011;21754;48.216;-1.628;2022-07-04T01:45:39;5.03;;;2.78;;
35632;SDS011;21754;48.216;-1.628;2022-07-04T01:48:06;6.35;;;1.85;;
35632;SDS011;21754;48.216;-1.628;2022-07-04T01:50:32;11.18;;;2.03;;
35632;SDS011;21754;48.216;-1.628;2022-07-04T01:52:58;6.70;;;1.85;;
35632;SDS011;21754;48.216;-1.628;2022-07-04T01:55:25;5.25;;;2.00;;
35632;SDS011;21754;48.216;-1.628;2022-07-04T01:57:50;6.80;;;2.40;;
35632;SDS011;21754;48.216;-1.628;2022-07-04T02:00:16;1.77;;;1.52;;
35632;SDS011;21754;48.216;-1.628;2022-07-04T02:03:00;5.13;;;2.20;;
35632;SDS011;21754;48.216;-1.628;2022-07-04T02:05:26;3.05;;;1.55;;
35632;SDS011;21754;48.216;-1.628;2022-07-04T02:07:52;2.70;;;1.48;;
35632;SDS011;21754;48.216;-1.628;2022-07-04T02:10:18;4.85;;;1.77;;
35632;SDS011;21754;48.216;-1.628;2022-07-04T02:12:43;1.95;;;1.45;;
35632;SDS011;21754;48.216;-1.628;2022-07-04T02:15:32;14.30;;;1.67;;
35632;SDS011;21754;48.216;-1.628;2022-07-04T02:18:04;9.18;;;2.33;;
35632;SDS011;21754;48.216;-1.628;2022-07-04T02:20:32;3.72;;;2.05;;
35632;SDS011;21754;48.216;-1.628;2022-07-04T02:22:59;2.63;;;1.58;;
35632;SDS011;21754;48.216;-1.628;2022-07-04T02:25:25;12.75;;;1.80;;
35632;SDS011;21754;48.216;-1.628;2022-07-04T02:27:51;7.68;;;2.08;;
35632;SDS011;21754;48.216;-1.628;2022-07-04T02:30:16;5.20;;;2.10;;
35632;SDS011;21754;48.216;-1.628;2022-07-04T02:32:42;8.55;;;1.90;;
35632;SDS011;21754;48.216;-1.628;2022-07-04T02:35:08;9.80;;;2.30;;
35632;SDS011;21754;48.216;-1.628;2022-07-04T02:37:35;6.95;;;1.95;;
35632;SDS011;21754;48.216;-1.628;2022-07-04T02:40:01;4.70;;;2.03;;
35632;SDS011;21754;48.216;-1.628;2022-07-04T02:42:31;5.65;;;1.88;;
35632;SDS011;21754;48.216;-1.628;2022-07-04T02:44:57;5.88;;;3.78;;
35632;SDS011;21754;48.216;-1.628;2022-07-04T02:47:23;4.93;;;1.90;;
35632;SDS011;21754;48.216;-1.628;2022-07-04T02:49:49;7.97;;;1.85;;
35632;SDS011;21754;48.216;-1.628;2022-07-04T02:52:15;15.05;;;2.50;;
35632;SDS011;21754;48.216;-1.628;2022-07-04T02:54:41;5.57;;;2.00;;
35632;SDS011;21754;48.216;-1.628;2022-07-04T02:57:07;6.43;;;2.90;;
35632;SDS011;21754;48.216;-1.628;2022-07-04T02:59:32;6.15;;;2.22;;
35632;SDS011;21754;48.216;-1.628;2022-07-04T03:01:58;9.95;;;3.75;;
35632;SDS011;21754;48.216;-1.628;2022-07-04T03:04:24;4.78;;;2.65;;
35632;SDS011;21754;48.216;-1.628;2022-07-04T03:06:49;7.57;;;2.63;;
35632;SDS011;21754;48.216;-1.628;2022-07-04T03:09:15;9.68;;;2.40;;
35632;SDS011;21754;48.216;-1.628;2022-07-04T03:11:41;2.60;;;2.00;;
35632;SDS011;21754;48.216;-1.628;2022-07-04T03:14:07;9.55;;;2.20;;
35632;SDS011;21754;48.216;-1.628;2022-07-04T03:16:33;5.85;;;1.85;;
35632;SDS011;21754;48.216;-1.628;2022-07-04T03:18:59;7.50;;;2.65;;
35632;SDS011;21754;48.216;-1.628;2022-07-04T03:21:24;8.07;;;2.47;;
35632;SDS011;21754;48.216;-1.628;2022-07-04T03:23:50;4.90;;;1.85;;
35632;SDS011;21754;48.216;-1.628;2022-07-04T03:26:25;3.72;;;1.77;;
35632;SDS011;21754;48.216;-1.628;2022-07-04T03:28:52;7.75;;;1.98;;
35632;SDS011;21754;48.216;-1.628;2022-07-04T03:31:18;4.10;;;1.90;;
35632;SDS011;21754;48.216;-1.628;2022-07-04T03:33:44;4.10;;;1.38;;
35632;SDS011;21754;48.216;-1.628;2022-07-04T03:36:10;6.18;;;1.65;;
35632;SDS011;21754;48.216;-1.628;2022-07-04T03:38:36;3.38;;;1.70;;
35632;SDS011;21754;48.216;-1.628;2022-07-04T03:41:01;8.63;;;2.33;;
35632;SDS011;21754;48.216;-1.628;2022-07-04T03:43:27;4.03;;;2.83;;
35632;SDS011;21754;48.216;-1.628;2022-07-04T03:45:53;2.15;;;1.60;;
35632;SDS011;21754;48.216;-1.628;2022-07-04T03:48:18;12.23;;;2.78;;
35632;SDS011;21754;48.216;-1.628;2022-07-04T03:50:45;6.00;;;1.77;;
35632;SDS011;21754;48.216;-1.628;2022-07-04T03:53:11;3.75;;;1.83;;
35632;SDS011;21754;48.216;-1.628;2022-07-04T03:55:37;3.95;;;1.95;;
35632;SDS011;21754;48.216;-1.628;2022-07-04T03:58:03;3.42;;;2.60;;
35632;SDS011;21754;48.216;-1.628;2022-07-04T04:00:29;8.52;;;2.47;;
35632;SDS011;21754;48.216;-1.628;2022-07-04T04:02:56;5.35;;;2.22;;
35632;SDS011;21754;48.216;-1.628;2022-07-04T04:05:21;4.72;;;2.00;;
35632;SDS011;21754;48.216;-1.628;2022-07-04T04:07:59;4.90;;;2.00;;
35632;SDS011;21754;48.216;-1.628;2022-07-04T04:10:26;7.10;;;2.03;;
35632;SDS011;21754;48.216;-1.628;2022-07-04T04:12:55;3.70;;;1.52;;
35632;SDS011;21754;48.216;-1.628;2022-07-04T04:15:22;5.82;;;1.65;;
35632;SDS011;21754;48.216;-1.628;2022-07-04T04:17:47;6.43;;;1.58;;
35632;SDS011;21754;48.216;-1.628;2022-07-04T04:20:13;5.03;;;2.17;;
35632;SDS011;21754;48.216;-1.628;2022-07-04T04:22:39;6.00;;;1.98;;
35632;SDS011;21754;48.216;-1.628;2022-07-04T04:25:04;4.35;;;2.00;;
35632;SDS011;21754;48.216;-1.628;2022-07-04T04:27:30;4.57;;;1.65;;
35632;SDS011;21754;48.216;-1.628;2022-07-04T04:29:56;3.63;;;1.55;;
35632;SDS011;21754;48.216;-1.628;2022-07-04T04:32:22;5.65;;;2.67;;
35632;SDS011;21754;48.216;-1.628;2022-07-04T04:34:47;4.35;;;1.17;;
35632;SDS011;21754;48.216;-1.628;2022-07-04T04:37:13;3.67;;;1.50;;
35632;SDS011;21754;48.216;-1.628;2022-07-04T04:39:39;8.35;;;1.80;;
35632;SDS011;21754;48.216;-1.628;2022-07-04T04:42:04;2.20;;;1.27;;
35632;SDS011;21754;48.216;-1.628;2022-07-04T04:44:30;3.83;;;1.88;;
35632;SDS011;21754;48.216;-1.628;2022-07-04T04:46:56;6.05;;;2.03;;
35632;SDS011;21754;48.216;-1.628;2022-07-04T04:49:21;5.10;;;1.73;;
35632;SDS011;21754;48.216;-1.628;2022-07-04T04:51:47;6.05;;;1.65;;
35632;SDS011;21754;48.216;-1.628;2022-07-04T04:54:13;5.75;;;1.67;;
35632;SDS011;21754;48.216;-1.628;2022-07-04T04:56:39;5.95;;;1.55;;
35632;SDS011;21754;48.216;-1.628;2022-07-04T04:59:04;5.65;;;2.15;;
35632;SDS011;21754;48.216;-1.628;2022-07-04T05:01:30;5.57;;;2.60;;
35632;SDS011;21754;48.216;-1.628;2022-07-04T05:03:55;4.13;;;1.27;;
35632;SDS011;21754;48.216;-1.628;2022-07-04T05:06:21;2.85;;;1.92;;
35632;SDS011;21754;48.216;-1.628;2022-07-04T05:08:47;2.88;;;1.90;;
35632;SDS011;21754;48.216;-1.628;2022-07-04T05:11:13;7.60;;;1.38;;
35632;SDS011;21754;48.216;-1.628;2022-07-04T05:13:38;2.97;;;1.60;;
35632;SDS011;21754;48.216;-1.628;2022-07-04T05:16:04;6.35;;;1.80;;
35632;SDS011;21754;48.216;-1.628;2022-07-04T05:18:30;7.40;;;2.15;;
35632;SDS011;21754;48.216;-1.628;2022-07-04T05:20:55;5.28;;;1.67;;
35632;SDS011;21754;48.216;-1.628;2022-07-04T05:23:21;6.40;;;2.05;;
35632;SDS011;21754;48.216;-1.628;2022-07-04T05:25:47;9.70;;;2.03;;
35632;SDS011;21754;48.216;-1.628;2022-07-04T05:28:13;5.72;;;1.70;;
35632;SDS011;21754;48.216;-1.628;2022-07-04T05:30:38;4.55;;;1.73;;
35632;SDS011;21754;48.216;-1.628;2022-07-04T05:33:04;2.17;;;1.70;;
35632;SDS011;21754;48.216;-1.628;2022-07-04T05:35:30;4.97;;;1.80;;
35632;SDS011;21754;48.216;-1.628;2022-07-04T05:37:56;5.72;;;1.80;;
35632;SDS011;21754;48.216;-1.628;2022-07-04T05:40:22;1.50;;;1.40;;
35632;SDS011;21754;48.216;-1.628;2022-07-04T05:42:48;8.75;;;1.73;;
35632;SDS011;21754;48.216;-1.628;2022-07-04T05:45:14;1.40;;;1.17;;
35632;SDS011;21754;48.216;-1.628;2022-07-04T05:47:40;5.93;;;3.13;;
35632;SDS011;21754;48.216;-1.628;2022-07-04T05:50:06;10.30;;;1.95;;
35632;SDS011;21754;48.216;-1.628;2022-07-04T05:52:32;3.67;;;1.55;;
35632;SDS011;21754;48.216;-1.628;2022-07-04T05:54:58;9.70;;;1.83;;
35632;SDS011;21754;48.216;-1.628;2022-07-04T05:57:23;3.17;;;2.15;;
35632;SDS011;21754;48.216;-1.628;2022-07-04T05:59:49;2.67;;;1.70;;
35632;SDS011;21754;48.216;-1.628;2022-07-04T06:02:14;2.75;;;1.67;;
35632;SDS011;21754;48.216;-1.628;2022-07-04T06:04:40;5.55;;;2.15;;
35632;SDS011;21754;48.216;-1.628;2022-07-04T06:07:08;9.60;;;2.42;;
35632;SDS011;21754;48.216;-1.628;2022-07-04T06:09:34;12.55;;;2.72;;
35632;SDS011;21754;48.216;-1.628;2022-07-04T06:11:59;2.70;;;1.90;;
35632;SDS011;21754;48.216;-1.628;2022-07-04T06:14:25;7.22;;;2.10;;
35632;SDS011;21754;48.216;-1.628;2022-07-04T06:16:51;5.55;;;1.88;;
35632;SDS011;21754;48.216;-1.628;2022-07-04T06:19:16;9.77;;;1.80;;
35632;SDS011;21754;48.216;-1.628;2022-07-04T06:21:42;7.40;;;2.38;;
35632;SDS011;21754;48.216;-1.628;2022-07-04T06:24:07;4.13;;;1.83;;
35632;SDS011;21754;48.216;-1.628;2022-07-04T06:26:33;5.82;;;2.35;;
35632;SDS011;21754;48.216;-1.628;2022-07-04T06:28:59;2.83;;;1.75;;
35632;SDS011;21754;48.216;-1.628;2022-07-04T06:31:24;8.02;;;2.22;;
35632;SDS011;21754;48.216;-1.628;2022-07-04T06:33:50;4.72;;;1.33;;
35632;SDS011;21754;48.216;-1.628;2022-07-04T06:36:34;5.80;;;2.03;;
35632;SDS011;21754;48.216;-1.628;2022-07-04T06:39:00;5.32;;;1.52;;
35632;SDS011;21754;48.216;-1.628;2022-07-04T06:41:25;4.07;;;1.40;;
35632;SDS011;21754;48.216;-1.628;2022-07-04T06:43:51;6.10;;;1.10;;
35632;SDS011;21754;48.216;-1.628;2022-07-04T06:46:17;7.70;;;2.22;;
35632;SDS011;21754;48.216;-1.628;2022-07-04T06:48:42;5.75;;;1.73;;
35632;SDS011;21754;48.216;-1.628;2022-07-04T06:51:08;10.48;;;1.60;;
35632;SDS011;21754;48.216;-1.628;2022-07-04T06:53:34;5.47;;;2.55;;
35632;SDS011;21754;48.216;-1.628;2022-07-04T06:55:59;6.35;;;1.63;;
35632;SDS011;21754;48.216;-1.628;2022-07-04T06:58:25;5.10;;;1.80;;
35632;SDS011;21754;48.216;-1.628;2022-07-04T07:00:51;11.07;;;1.63;;
35632;SDS011;21754;48.216;-1.628;2022-07-04T07:03:16;3.75;;;1.70;;
35632;SDS011;21754;48.216;-1.628;2022-07-04T07:05:42;2.28;;;1.60;;
35632;SDS011;21754;48.216;-1.628;2022-07-04T07:08:08;9.35;;;2.35;;
35632;SDS011;21754;48.216;-1.628;2022-07-04T07:10:33;6.15;;;1.33;;
35632;SDS011;21754;48.216;-1.628;2022-07-04T07:13:00;6.32;;;1.63;;
35632;SDS011;21754;48.216;-1.628;2022-07-04T07:15:27;13.85;;;3.42;;
35632;SDS011;21754;48.216;-1.628;2022-07-04T07:17:53;10.48;;;2.28;;
35632;SDS011;21754;48.216;-1.628;2022-07-04T07:20:18;7.60;;;1.38;;
35632;SDS011;21754;48.216;-1.628;2022-07-04T07:22:44;2.90;;;1.10;;
35632;SDS011;21754;48.216;-1.628;2022-07-04T07:25:10;3.15;;;1.63;;
35632;SDS011;21754;48.216;-1.628;2022-07-04T07:27:36;4.50;;;1.13;;
35632;SDS011;21754;48.216;-1.628;2022-07-04T07:30:03;15.30;;;1.30;;
35632;SDS011;21754;48.216;-1.628;2022-07-04T07:32:29;4.90;;;0.88;;
35632;SDS011;21754;48.216;-1.628;2022-07-04T07:34:55;2.08;;;1.45;;
35632;SDS011;21754;48.216;-1.628;2022-07-04T07:37:21;3.45;;;1.90;;
35632;SDS011;21754;48.216;-1.628;2022-07-04T07:39:47;3.33;;;1.15;;
35632;SDS011;21754;48.216;-1.628;2022-07-04T07:42:13;4.63;;;2.05;;
35632;SDS011;21754;48.216;-1.628;2022-07-04T07:44:39;5.85;;;1.33;;
35632;SDS011;21754;48.216;-1.628;2022-07-04T07:47:04;3.92;;;0.77;;
35632;SDS011;21754;48.216;-1.628;2022-07-04T07:49:30;7.18;;;1.42;;
35632;SDS011;21754;48.216;-1.628;2022-07-04T07:51:56;2.55;;;1.27;;
35632;SDS011;21754;48.216;-1.628;2022-07-04T07:54:21;3.67;;;1.40;;
35632;SDS011;21754;48.216;-1.628;2022-07-04T07:56:47;6.07;;;1.60;;
35632;SDS011;21754;48.216;-1.628;2022-07-04T07:59:13;4.20;;;1.17;;
35632;SDS011;21754;48.216;-1.628;2022-07-04T08:01:38;5.18;;;1.02;;
35632;SDS011;21754;48.216;-1.628;2022-07-04T08:04:04;6.28;;;1.73;;
35632;SDS011;21754;48.216;-1.628;2022-07-04T08:06:49;12.40;;;2.00;;
35632;SDS011;21754;48.216;-1.628;2022-07-04T08:09:15;2.53;;;0.88;;
35632;SDS011;21754;48.216;-1.628;2022-07-04T08:11:41;5.85;;;1.02;;
35632;SDS011;21754;48.216;-1.628;2022-07-04T08:14:07;4.55;;;1.08;;
35632;SDS011;21754;48.216;-1.628;2022-07-04T08:16:33;4.28;;;2.17;;
35632;SDS011;21754;48.216;-1.628;2022-07-04T08:18:59;2.97;;;1.02;;
35632;SDS011;21754;48.216;-1.628;2022-07-04T08:21:25;8.13;;;1.10;;
35632;SDS011;21754;48.216;-1.628;2022-07-04T08:23:51;3.15;;;1.00;;
35632;SDS011;21754;48.216;-1.628;2022-07-04T08:26:17;5.88;;;0.88;;
35632;SDS011;21754;48.216;-1.628;2022-07-04T08:28:43;2.83;;;1.08;;
35632;SDS011;21754;48.216;-1.628;2022-07-04T08:31:09;8.32;;;1.65;;
35632;SDS011;21754;48.216;-1.628;2022-07-04T08:33:35;1.98;;;0.85;;
35632;SDS011;21754;48.216;-1.628;2022-07-04T08:36:00;2.55;;;0.80;;
35632;SDS011;21754;48.216;-1.628;2022-07-04T08:38:26;3.72;;;0.98;;
35632;SDS011;21754;48.216;-1.628;2022-07-04T08:40:54;9.73;;;2.78;;
35632;SDS011;21754;48.216;-1.628;2022-07-04T08:43:22;2.85;;;0.85;;
35632;SDS011;21754;48.216;-1.628;2022-07-04T08:45:49;2.58;;;0.65;;
35632;SDS011;21754;48.216;-1.628;2022-07-04T08:48:19;3.88;;;0.77;;
35632;SDS011;21754;48.216;-1.628;2022-07-04T08:50:49;2.50;;;0.75;;
35632;SDS011;21754;48.216;-1.628;2022-07-04T08:53:18;1.38;;;0.70;;
35632;SDS011;21754;48.216;-1.628;2022-07-04T08:55:45;3.38;;;0.70;;
35632;SDS011;21754;48.216;-1.628;2022-07-04T08:58:31;9.65;;;1.63;;
35632;SDS011;21754;48.216;-1.628;2022-07-04T09:01:04;4.45;;;0.70;;
35632;SDS011;21754;48.216;-1.628;2022-07-04T09:03:32;1.75;;;0.95;;
35632;SDS011;21754;48.216;-1.628;2022-07-04T09:05:58;4.20;;;0.90;;
35632;SDS011;21754;48.216;-1.628;2022-07-04T09:08:24;3.85;;;0.85;;
35632;SDS011;21754;48.216;-1.628;2022-07-04T09:10:51;2.70;;;1.00;;
35632;SDS011;21754;48.216;-1.628;2022-07-04T09:13:17;4.15;;;0.90;;
35632;SDS011;21754;48.216;-1.628;2022-07-04T09:15:47;2.05;;;0.82;;
35632;SDS011;21754;48.216;-1.628;2022-07-04T09:18:28;1.08;;;0.93;;
35632;SDS011;21754;48.216;-1.628;2022-07-04T09:20:57;4.20;;;0.98;;
35632;SDS011;21754;48.216;-1.628;2022-07-04T09:23:28;2.25;;;1.10;;
35632;SDS011;21754;48.216;-1.628;2022-07-04T09:26:07;2.90;;;1.40;;
35632;SDS011;21754;48.216;-1.628;2022-07-04T09:28:39;3.75;;;1.25;;
35632;SDS011;21754;48.216;-1.628;2022-07-04T09:31:21;2.13;;;1.33;;
35632;SDS011;21754;48.216;-1.628;2022-07-04T09:33:53;2.05;;;0.80;;
35632;SDS011;21754;48.216;-1.628;2022-07-04T09:36:21;3.25;;;1.48;;
35632;SDS011;21754;48.216;-1.628;2022-07-04T09:39:08;5.70;;;0.90;;
35632;SDS011;21754;48.216;-1.628;2022-07-04T09:42:10;7.40;;;1.40;;
35632;SDS011;21754;48.216;-1.628;2022-07-04T09:47:21;1.33;;;0.70;;
35632;SDS011;21754;48.216;-1.628;2022-07-04T09:50:06;4.30;;;1.17;;
35632;SDS011;21754;48.216;-1.628;2022-07-04T09:52:56;2.70;;;0.85;;
35632;SDS011;21754;48.216;-1.628;2022-07-04T09:55:30;4.13;;;1.30;;
35632;SDS011;21754;48.216;-1.628;2022-07-04T10:00:32;1.88;;;0.70;;
35632;SDS011;21754;48.216;-1.628;2022-07-04T10:08:35;2.30;;;0.95;;
35632;SDS011;21754;48.216;-1.628;2022-07-04T10:11:02;7.65;;;1.48;;
35632;SDS011;21754;48.216;-1.628;2022-07-04T10:13:28;1.17;;;0.90;;
35632;SDS011;21754;48.216;-1.628;2022-07-04T10:15:55;3.17;;;0.85;;
35632;SDS011;21754;48.216;-1.628;2022-07-04T10:18:22;1.52;;;1.17;;
35632;SDS011;21754;48.216;-1.628;2022-07-04T10:20:48;0.60;;;0.50;;
35632;SDS011;21754;48.216;-1.628;2022-07-04T10:23:15;2.75;;;0.73;;
35632;SDS011;21754;48.216;-1.628;2022-07-04T10:25:42;6.43;;;0.83;;
35632;SDS011;21754;48.216;-1.628;2022-07-04T10:28:08;7.13;;;0.80;;
35632;SDS011;21754;48.216;-1.628;2022-07-04T10:30:34;2.47;;;0.70;;
35632;SDS011;21754;48.216;-1.628;2022-07-04T10:38:20;2.60;;;0.65;;
35632;SDS011;21754;48.216;-1.628;2022-07-04T10:40:57;3.77;;;0.57;;
35632;SDS011;21754;48.216;-1.628;2022-07-04T10:45:55;1.05;;;0.82;;
35632;SDS011;21754;48.216;-1.628;2022-07-04T10:48:27;4.72;;;1.13;;
35632;SDS011;21754;48.216;-1.628;2022-07-04T10:51:03;5.63;;;1.90;;
35632;SDS011;21754;48.216;-1.628;2022-07-04T10:53:30;6.80;;;0.80;;
35632;SDS011;21754;48.216;-1.628;2022-07-04T11:01:14;5.43;;;0.70;;
35632;SDS011;21754;48.216;-1.628;2022-07-04T11:03:45;6.32;;;1.00;;
35632;SDS011;21754;48.216;-1.628;2022-07-04T11:12:02;5.63;;;1.13;;
35632;SDS011;21754;48.216;-1.628;2022-07-04T11:16:55;5.97;;;1.15;;
35632;SDS011;21754;48.216;-1.628;2022-07-04T11:19:21;1.95;;;0.70;;
35632;SDS011;21754;48.216;-1.628;2022-07-04T11:21:47;2.67;;;0.75;;
35632;SDS011;21754;48.216;-1.628;2022-07-04T11:24:13;1.48;;;0.52;;
35632;SDS011;21754;48.216;-1.628;2022-07-04T11:26:38;2.53;;;0.90;;
35632;SDS011;21754;48.216;-1.628;2022-07-04T11:29:04;2.83;;;0.60;;
35632;SDS011;21754;48.216;-1.628;2022-07-04T11:31:36;4.03;;;1.55;;
35632;SDS011;21754;48.216;-1.628;2022-07-04T11:34:10;1.27;;;0.65;;
35632;SDS011;21754;48.216;-1.628;2022-07-04T11:36:35;1.52;;;0.60;;
35632;SDS011;21754;48.216;-1.628;2022-07-04T11:39:04;3.33;;;0.77;;
35632;SDS011;21754;48.216;-1.628;2022-07-04T11:44:17;0.98;;;0.70;;
35632;SDS011;21754;48.216;-1.628;2022-07-04T11:47:07;1.30;;;0.67;;
35632;SDS011;21754;48.216;-1.628;2022-07-04T11:49:57;0.98;;;0.47;;
35632;SDS011;21754;48.216;-1.628;2022-07-04T11:52:27;3.97;;;0.95;;
35632;SDS011;21754;48.216;-1.628;2022-07-04T11:55:04;2.55;;;0.60;;
35632;SDS011;21754;48.216;-1.628;2022-07-04T11:57:37;1.02;;;0.50;;
35632;SDS011;21754;48.216;-1.628;2022-07-04T12:02:32;1.98;;;0.80;;
35632;SDS011;21754;48.216;-1.628;2022-07-04T12:04:58;0.82;;;0.57;;
35632;SDS011;21754;48.216;-1.628;2022-07-04T12:07:26;2.10;;;0.65;;
35632;SDS011;21754;48.216;-1.628;2022-07-04T12:12:19;2.65;;;0.55;;
35632;SDS011;21754;48.216;-1.628;2022-07-04T12:14:56;1.75;;;0.63;;
35632;SDS011;21754;48.216;-1.628;2022-07-04T12:17:27;0.93;;;0.60;;
35632;SDS011;21754;48.216;-1.628;2022-07-04T12:22:30;1.40;;;0.75;;
35632;SDS011;21754;48.216;-1.628;2022-07-04T12:25:01;5.93;;;0.70;;
35632;SDS011;21754;48.216;-1.628;2022-07-04T12:27:28;4.22;;;0.60;;
35632;SDS011;21754;48.216;-1.628;2022-07-04T12:29:54;3.13;;;1.23;;
35632;SDS011;21754;48.216;-1.628;2022-07-04T12:32:21;5.35;;;1.42;;
35632;SDS011;21754;48.216;-1.628;2022-07-04T12:34:47;1.13;;;0.70;;
35632;SDS011;21754;48.216;-1.628;2022-07-04T12:37:13;5.43;;;0.80;;
35632;SDS011;21754;48.216;-1.628;2022-07-04T12:39:41;0.70;;;0.57;;
35632;SDS011;21754;48.216;-1.628;2022-07-04T12:42:13;1.70;;;0.70;;
35632;SDS011;21754;48.216;-1.628;2022-07-04T12:44:42;0.45;;;0.45;;
35632;SDS011;21754;48.216;-1.628;2022-07-04T12:47:09;2.05;;;0.43;;
35632;SDS011;21754;48.216;-1.628;2022-07-04T12:49:36;0.68;;;0.68;;
35632;SDS011;21754;48.216;-1.628;2022-07-04T12:52:10;1.27;;;0.73;;
35632;SDS011;21754;48.216;-1.628;2022-07-04T12:54:41;1.15;;;0.50;;
35632;SDS011;21754;48.216;-1.628;2022-07-04T12:57:11;11.48;;;0.77;;
35632;SDS011;21754;48.216;-1.628;2022-07-04T12:59:40;4.55;;;1.13;;
35632;SDS011;21754;48.216;-1.628;2022-07-04T13:02:07;1.73;;;0.50;;
35632;SDS011;21754;48.216;-1.628;2022-07-04T13:04:34;1.20;;;0.60;;
35632;SDS011;21754;48.216;-1.628;2022-07-04T13:07:11;2.07;;;0.60;;
35632;SDS011;21754;48.216;-1.628;2022-07-04T13:09:39;3.55;;;0.40;;
35632;SDS011;21754;48.216;-1.628;2022-07-04T13:12:06;1.35;;;1.25;;
35632;SDS011;21754;48.216;-1.628;2022-07-04T13:14:56;3.45;;;0.80;;
35632;SDS011;21754;48.216;-1.628;2022-07-04T13:17:24;1.70;;;0.65;;
35632;SDS011;21754;48.216;-1.628;2022-07-04T13:19:50;0.80;;;0.45;;
35632;SDS011;21754;48.216;-1.628;2022-07-04T13:22:21;0.63;;;0.63;;
35632;SDS011;21754;48.216;-1.628;2022-07-04T13:24:48;2.70;;;0.60;;
35632;SDS011;21754;48.216;-1.628;2022-07-04T13:27:15;0.98;;;0.60;;
35632;SDS011;21754;48.216;-1.628;2022-07-04T13:29:41;1.42;;;0.50;;
35632;SDS011;21754;48.216;-1.628;2022-07-04T13:32:07;1.48;;;0.55;;
35632;SDS011;21754;48.216;-1.628;2022-07-04T13:34:34;2.92;;;0.55;;
35632;SDS011;21754;48.216;-1.628;2022-07-04T13:37:00;4.80;;;0.87;;
35632;SDS011;21754;48.216;-1.628;2022-07-04T13:39:25;4.15;;;1.42;;
35632;SDS011;21754;48.216;-1.628;2022-07-04T13:41:51;1.48;;;0.57;;
35632;SDS011;21754;48.216;-1.628;2022-07-04T13:44:16;1.92;;;0.40;;
35632;SDS011;21754;48.216;-1.628;2022-07-04T13:46:42;0.80;;;0.50;;
35632;SDS011;21754;48.216;-1.628;2022-07-04T13:49:08;1.85;;;0.60;;
35632;SDS011;21754;48.216;-1.628;2022-07-04T13:51:34;2.28;;;0.52;;
35632;SDS011;21754;48.216;-1.628;2022-07-04T13:54:01;2.00;;;1.13;;
35632;SDS011;21754;48.216;-1.628;2022-07-04T13:56:27;1.52;;;0.50;;
35632;SDS011;21754;48.216;-1.628;2022-07-04T13:58:53;1.23;;;1.00;;
35632;SDS011;21754;48.216;-1.628;2022-07-04T14:01:18;1.60;;;0.40;;
35632;SDS011;21754;48.216;-1.628;2022-07-04T14:03:45;0.85;;;0.60;;
35632;SDS011;21754;48.216;-1.628;2022-07-04T14:06:11;4.55;;;0.70;;
35632;SDS011;21754;48.216;-1.628;2022-07-04T14:08:37;3.40;;;0.55;;
35632;SDS011;21754;48.216;-1.628;2022-07-04T14:11:03;3.00;;;0.68;;
35632;SDS011;21754;48.216;-1.628;2022-07-04T14:13:29;2.50;;;0.60;;
35632;SDS011;21754;48.216;-1.628;2022-07-04T14:15:54;16.13;;;0.77;;
35632;SDS011;21754;48.216;-1.628;2022-07-04T14:18:20;4.45;;;0.70;;
35632;SDS011;21754;48.216;-1.628;2022-07-04T14:20:46;0.43;;;0.43;;
35632;SDS011;21754;48.216;-1.628;2022-07-04T14:23:12;0.82;;;0.60;;
35632;SDS011;21754;48.216;-1.628;2022-07-04T14:25:38;1.98;;;0.60;;
35632;SDS011;21754;48.216;-1.628;2022-07-04T14:28:04;2.55;;;0.55;;
35632;SDS011;21754;48.216;-1.628;2022-07-04T14:30:30;6.47;;;0.60;;
35632;SDS011;21754;48.216;-1.628;2022-07-04T14:32:56;1.05;;;0.70;;
35632;SDS011;21754;48.216;-1.628;2022-07-04T14:35:22;0.88;;;0.60;;
35632;SDS011;21754;48.216;-1.628;2022-07-04T14:37:47;3.80;;;1.20;;
35632;SDS011;21754;48.216;-1.628;2022-07-04T14:40:13;1.13;;;0.40;;
35632;SDS011;21754;48.216;-1.628;2022-07-04T14:42:40;1.65;;;0.40;;
35632;SDS011;21754;48.216;-1.628;2022-07-04T14:45:06;0.80;;;0.50;;
35632;SDS011;21754;48.216;-1.628;2022-07-04T14:47:32;0.60;;;0.55;;
35632;SDS011;21754;48.216;-1.628;2022-07-04T14:52:26;2.13;;;0.50;;
35632;SDS011;21754;48.216;-1.628;2022-07-04T14:54:52;2.13;;;0.50;;
35632;SDS011;21754;48.216;-1.628;2022-07-04T14:57:17;0.95;;;0.60;;
35632;SDS011;21754;48.216;-1.628;2022-07-04T14:59:43;2.20;;;0.52;;
35632;SDS011;21754;48.216;-1.628;2022-07-04T15:02:09;0.50;;;0.50;;
35632;SDS011;21754;48.216;-1.628;2022-07-04T15:04:34;1.38;;;0.70;;
35632;SDS011;21754;48.216;-1.628;2022-07-04T15:07:00;1.10;;;0.50;;
35632;SDS011;21754;48.216;-1.628;2022-07-04T15:09:27;2.40;;;0.80;;
35632;SDS011;21754;48.216;-1.628;2022-07-04T15:11:52;3.75;;;0.60;;
35632;SDS011;21754;48.216;-1.628;2022-07-04T15:14:18;2.70;;;0.80;;
35632;SDS011;21754;48.216;-1.628;2022-07-04T15:16:44;0.93;;;0.60;;
35632;SDS011;21754;48.216;-1.628;2022-07-04T15:19:09;1.65;;;0.55;;